SWA6132 KMCI-KCOU
Flight info
| Callsign | SWA6132 |
|---|---|
| Flight time | 0h 28m |
| Altitude | 13000 |
| Route | LAKES5 COU |
| Aircraft | B737/M-SDE2E3GIJ4RWZ/LB1D1 |
Departure
| Time | 2026-05-05 12:18 |
|---|---|
| Airport | Kansas City International Airport (KMCI) |
Arrival
| Time | 2026-05-05 12:46 |
|---|---|
| Airport | Columbia Regional Airport (KCOU) |
| Time | Latitude | Longitude | Altitude | Speed | Heading |
|---|---|---|---|---|---|
| 2026-05-05 12:00 | 39.29956 | -94.71987 | 1013 ft | 0 kts | 102° |
| 2026-05-05 12:10 | 39.29956 | -94.71988 | 1013 ft | 0 kts | 109° |
| 2026-05-05 12:10 | 39.29956 | -94.71989 | 1013 ft | 0 kts | 116° |
| 2026-05-05 12:10 | 39.29957 | -94.71991 | 1013 ft | 0 kts | 122° |
| 2026-05-05 12:10 | 39.29957 | -94.71992 | 1013 ft | 0 kts | 128° |
| 2026-05-05 12:11 | 39.29957 | -94.71993 | 1013 ft | 0 kts | 134° |
| 2026-05-05 12:11 | 39.29958 | -94.71995 | 1014 ft | 0 kts | 141° |
| 2026-05-05 12:11 | 39.29959 | -94.71996 | 1014 ft | 0 kts | 147° |
| 2026-05-05 12:12 | 39.29948 | -94.72023 | 1014 ft | 6 kts | 295° |
| 2026-05-05 12:12 | 39.29976 | -94.72055 | 1013 ft | 5 kts | 324° |
| 2026-05-05 12:12 | 39.30012 | -94.72069 | 1013 ft | 5 kts | 349° |
| 2026-05-05 12:12 | 39.30043 | -94.72093 | 1013 ft | 5 kts | 318° |
| 2026-05-05 12:13 | 39.30071 | -94.72127 | 1012 ft | 5 kts | 313° |
| 2026-05-05 12:13 | 39.30094 | -94.72178 | 1012 ft | 10 kts | 299° |
| 2026-05-05 12:13 | 39.30117 | -94.72268 | 1012 ft | 11 kts | 290° |
| 2026-05-05 12:13 | 39.30084 | -94.72340 | 1012 ft | 14 kts | 195° |
| 2026-05-05 12:14 | 39.29973 | -94.72372 | 1014 ft | 16 kts | 192° |
| 2026-05-05 12:14 | 39.29865 | -94.72402 | 1015 ft | 16 kts | 192° |
| 2026-05-05 12:14 | 39.29760 | -94.72431 | 1016 ft | 15 kts | 192° |
| 2026-05-05 12:14 | 39.29660 | -94.72459 | 1018 ft | 14 kts | 192° |
| 2026-05-05 12:15 | 39.29591 | -94.72477 | 1019 ft | 10 kts | 192° |
| 2026-05-05 12:15 | 39.29562 | -94.72547 | 1019 ft | 9 kts | 268° |
| 2026-05-05 12:15 | 39.29519 | -94.72599 | 1019 ft | 9 kts | 201° |
| 2026-05-05 12:15 | 39.29458 | -94.72618 | 1020 ft | 9 kts | 191° |
| 2026-05-05 12:16 | 39.29398 | -94.72634 | 1021 ft | 9 kts | 191° |
| 2026-05-05 12:16 | 39.29339 | -94.72649 | 1021 ft | 8 kts | 193° |
| 2026-05-05 12:16 | 39.29301 | -94.72700 | 1021 ft | 9 kts | 257° |
| 2026-05-05 12:16 | 39.29305 | -94.72785 | 1021 ft | 11 kts | 265° |
| 2026-05-05 12:17 | 39.29335 | -94.72883 | 1019 ft | 15 kts | 326° |
| 2026-05-05 12:17 | 39.29534 | -94.72872 | 1019 ft | 64 kts | 13° |
| 2026-05-05 12:17 | 39.30268 | -94.72657 | 1012 ft | 152 kts | 13° |
| 2026-05-05 12:17 | 39.31499 | -94.72295 | 1443 ft | 197 kts | 14° |
| 2026-05-05 12:18 | 39.32937 | -94.71789 | 2146 ft | 228 kts | 24° |
| 2026-05-05 12:18 | 39.34346 | -94.70728 | 2657 ft | 236 kts | 40° |
| 2026-05-05 12:18 | 39.35457 | -94.69146 | 3188 ft | 242 kts | 56° |
| 2026-05-05 12:18 | 39.36191 | -94.67135 | 3767 ft | 255 kts | 71° |
| 2026-05-05 12:19 | 39.36425 | -94.64816 | 4362 ft | 267 kts | 86° |
| 2026-05-05 12:19 | 39.36116 | -94.62384 | 4977 ft | 282 kts | 102° |
| 2026-05-05 12:19 | 39.35394 | -94.60031 | 5601 ft | 288 kts | 110° |
| 2026-05-05 12:19 | 39.34516 | -94.57667 | 6258 ft | 295 kts | 114° |
| 2026-05-05 12:20 | 39.33467 | -94.55355 | 6833 ft | 301 kts | 121° |
| 2026-05-05 12:20 | 39.32263 | -94.53237 | 7191 ft | 285 kts | 126° |
| 2026-05-05 12:20 | 39.31081 | -94.51162 | 7684 ft | 292 kts | 122° |
| 2026-05-05 12:20 | 39.30023 | -94.48898 | 8199 ft | 294 kts | 118° |
| 2026-05-05 12:21 | 39.29098 | -94.46517 | 8720 ft | 300 kts | 115° |
| 2026-05-05 12:21 | 39.28287 | -94.44020 | 9238 ft | 302 kts | 111° |
| 2026-05-05 12:21 | 39.27592 | -94.41482 | 9751 ft | 306 kts | 109° |
| 2026-05-05 12:21 | 39.26970 | -94.38834 | 10246 ft | 313 kts | 107° |
| 2026-05-05 12:22 | 39.26403 | -94.36053 | 10738 ft | 328 kts | 105° |
| 2026-05-05 12:22 | 39.25876 | -94.33120 | 11241 ft | 343 kts | 103° |
| 2026-05-05 12:22 | 39.25380 | -94.30050 | 11757 ft | 356 kts | 102° |
| 2026-05-05 12:22 | 39.24909 | -94.26854 | 12273 ft | 368 kts | 101° |
| 2026-05-05 12:23 | 39.24462 | -94.23534 | 12783 ft | 379 kts | 101° |
| 2026-05-05 12:23 | 39.24029 | -94.20139 | 12978 ft | 386 kts | 100° |
| 2026-05-05 12:23 | 39.23630 | -94.16768 | 12987 ft | 384 kts | 99° |
| 2026-05-05 12:23 | 39.23228 | -94.13369 | 12990 ft | 384 kts | 100° |
| 2026-05-05 12:24 | 39.22823 | -94.09959 | 12993 ft | 385 kts | 99° |
| 2026-05-05 12:24 | 39.22451 | -94.06549 | 12989 ft | 384 kts | 99° |
| 2026-05-05 12:24 | 39.22097 | -94.03135 | 12987 ft | 384 kts | 98° |
| 2026-05-05 12:24 | 39.21737 | -93.99716 | 12988 ft | 384 kts | 99° |
| 2026-05-05 12:25 | 39.21377 | -93.96303 | 12981 ft | 383 kts | 98° |
| 2026-05-05 12:25 | 39.21017 | -93.92894 | 12977 ft | 384 kts | 99° |
| 2026-05-05 12:25 | 39.20656 | -93.89473 | 12976 ft | 384 kts | 98° |
| 2026-05-05 12:25 | 39.20285 | -93.86069 | 12974 ft | 383 kts | 99° |
| 2026-05-05 12:26 | 39.19885 | -93.82676 | 12971 ft | 383 kts | 99° |
| 2026-05-05 12:26 | 39.19489 | -93.79318 | 12977 ft | 383 kts | 99° |
| 2026-05-05 12:26 | 39.19089 | -93.75929 | 12974 ft | 383 kts | 99° |
| 2026-05-05 12:26 | 39.18723 | -93.72531 | 12974 ft | 383 kts | 98° |
| 2026-05-05 12:27 | 39.18371 | -93.69134 | 12971 ft | 383 kts | 98° |
| 2026-05-05 12:27 | 39.18017 | -93.65728 | 12973 ft | 383 kts | 98° |
| 2026-05-05 12:27 | 39.17651 | -93.62335 | 12973 ft | 382 kts | 99° |
| 2026-05-05 12:27 | 39.17254 | -93.58948 | 12975 ft | 382 kts | 99° |
| 2026-05-05 12:28 | 39.16857 | -93.55560 | 12976 ft | 382 kts | 99° |
| 2026-05-05 12:28 | 39.16459 | -93.52170 | 12978 ft | 382 kts | 99° |
| 2026-05-05 12:28 | 39.16067 | -93.48789 | 12977 ft | 379 kts | 99° |
| 2026-05-05 12:28 | 39.15692 | -93.45521 | 12975 ft | 360 kts | 99° |
| 2026-05-05 12:29 | 39.15339 | -93.42403 | 12973 ft | 343 kts | 99° |
| 2026-05-05 12:29 | 39.15000 | -93.39396 | 12637 ft | 338 kts | 99° |
| 2026-05-05 12:29 | 39.14665 | -93.36416 | 12283 ft | 334 kts | 99° |
| 2026-05-05 12:29 | 39.14340 | -93.33517 | 11995 ft | 328 kts | 99° |
| 2026-05-05 12:30 | 39.14017 | -93.30629 | 11720 ft | 323 kts | 99° |
| 2026-05-05 12:30 | 39.13701 | -93.27791 | 11431 ft | 318 kts | 99° |
| 2026-05-05 12:30 | 39.13391 | -93.24994 | 11168 ft | 313 kts | 99° |
| 2026-05-05 12:30 | 39.13086 | -93.22238 | 10893 ft | 309 kts | 99° |
| 2026-05-05 12:31 | 39.12791 | -93.19514 | 10625 ft | 304 kts | 99° |
| 2026-05-05 12:31 | 39.12496 | -93.16831 | 10355 ft | 300 kts | 99° |
| 2026-05-05 12:31 | 39.12181 | -93.14189 | 10090 ft | 296 kts | 100° |
| 2026-05-05 12:31 | 39.11866 | -93.11582 | 9826 ft | 293 kts | 100° |
| 2026-05-05 12:32 | 39.11555 | -93.09004 | 9543 ft | 289 kts | 100° |
| 2026-05-05 12:32 | 39.11246 | -93.06481 | 9255 ft | 286 kts | 99° |
| 2026-05-05 12:32 | 39.10956 | -93.03958 | 8967 ft | 283 kts | 99° |
| 2026-05-05 12:32 | 39.10665 | -93.01462 | 8662 ft | 280 kts | 99° |
| 2026-05-05 12:33 | 39.10369 | -92.98990 | 8395 ft | 278 kts | 99° |
| 2026-05-05 12:33 | 39.10075 | -92.96542 | 8116 ft | 275 kts | 98° |
| 2026-05-05 12:33 | 39.09792 | -92.94110 | 7835 ft | 273 kts | 98° |
| 2026-05-05 12:33 | 39.09504 | -92.91713 | 7561 ft | 270 kts | 97° |
| 2026-05-05 12:34 | 39.09234 | -92.89366 | 7298 ft | 267 kts | 97° |
| 2026-05-05 12:34 | 39.08953 | -92.87013 | 7033 ft | 264 kts | 97° |
| 2026-05-05 12:34 | 39.08671 | -92.84699 | 6768 ft | 260 kts | 96° |
| 2026-05-05 12:34 | 39.08409 | -92.82403 | 6506 ft | 258 kts | 96° |
| 2026-05-05 12:35 | 39.08141 | -92.80131 | 6236 ft | 255 kts | 96° |
| 2026-05-05 12:35 | 39.07867 | -92.77880 | 5958 ft | 253 kts | 96° |
| 2026-05-05 12:35 | 39.07600 | -92.75661 | 5674 ft | 250 kts | 96° |
| 2026-05-05 12:35 | 39.07340 | -92.73479 | 5524 ft | 242 kts | 96° |
| 2026-05-05 12:36 | 39.07087 | -92.71357 | 5423 ft | 239 kts | 96° |
| 2026-05-05 12:36 | 39.06835 | -92.69240 | 5337 ft | 239 kts | 96° |
| 2026-05-05 12:36 | 39.06588 | -92.67141 | 5255 ft | 241 kts | 96° |
| 2026-05-05 12:36 | 39.06334 | -92.65004 | 5157 ft | 242 kts | 96° |
| 2026-05-05 12:37 | 39.06088 | -92.62833 | 5059 ft | 242 kts | 95° |
| 2026-05-05 12:37 | 39.05843 | -92.60705 | 4954 ft | 239 kts | 96° |
| 2026-05-05 12:37 | 39.05604 | -92.58629 | 4850 ft | 236 kts | 96° |
| 2026-05-05 12:37 | 39.05367 | -92.56543 | 4751 ft | 235 kts | 96° |
| 2026-05-05 12:38 | 39.05134 | -92.54465 | 4643 ft | 234 kts | 95° |
| 2026-05-05 12:38 | 39.04895 | -92.52392 | 4540 ft | 234 kts | 96° |
| 2026-05-05 12:38 | 39.04651 | -92.50326 | 4485 ft | 232 kts | 96° |
| 2026-05-05 12:38 | 39.04390 | -92.48287 | 4488 ft | 231 kts | 96° |
| 2026-05-05 12:39 | 39.04122 | -92.46241 | 4491 ft | 233 kts | 96° |
| 2026-05-05 12:39 | 39.03847 | -92.44166 | 4500 ft | 235 kts | 96° |
| 2026-05-05 12:39 | 39.03577 | -92.42089 | 4503 ft | 235 kts | 97° |
| 2026-05-05 12:39 | 39.03315 | -92.40049 | 4494 ft | 234 kts | 97° |
| 2026-05-05 12:40 | 39.03052 | -92.37986 | 4489 ft | 233 kts | 96° |
| 2026-05-05 12:40 | 39.02792 | -92.35931 | 4500 ft | 233 kts | 96° |
| 2026-05-05 12:40 | 39.02535 | -92.33863 | 4507 ft | 235 kts | 96° |
| 2026-05-05 12:40 | 39.02278 | -92.31785 | 4501 ft | 235 kts | 97° |
| 2026-05-05 12:41 | 39.02025 | -92.29716 | 4492 ft | 233 kts | 96° |
| 2026-05-05 12:41 | 39.01775 | -92.27666 | 4499 ft | 230 kts | 96° |
| 2026-05-05 12:41 | 39.01526 | -92.25636 | 4500 ft | 230 kts | 96° |
| 2026-05-05 12:41 | 39.01281 | -92.23599 | 4503 ft | 231 kts | 96° |
| 2026-05-05 12:42 | 39.01032 | -92.21548 | 4502 ft | 233 kts | 96° |
| 2026-05-05 12:42 | 39.00787 | -92.19510 | 4501 ft | 232 kts | 96° |
| 2026-05-05 12:42 | 39.00517 | -92.17478 | 4484 ft | 229 kts | 104° |
| 2026-05-05 12:42 | 38.99655 | -92.15719 | 4082 ft | 245 kts | 138° |
| 2026-05-05 12:43 | 38.98048 | -92.14965 | 3703 ft | 255 kts | 176° |
| 2026-05-05 12:43 | 38.96312 | -92.15420 | 3462 ft | 253 kts | 194° |
| 2026-05-05 12:43 | 38.94636 | -92.16018 | 3306 ft | 248 kts | 192° |
| 2026-05-05 12:43 | 38.92919 | -92.16617 | 3042 ft | 264 kts | 193° |
| 2026-05-05 12:44 | 38.91161 | -92.17318 | 2761 ft | 264 kts | 197° |
| 2026-05-05 12:44 | 38.89564 | -92.18379 | 3199 ft | 257 kts | 214° |
| 2026-05-05 12:44 | 38.88228 | -92.20010 | 3167 ft | 275 kts | 233° |
| 2026-05-05 12:44 | 38.86897 | -92.21597 | 3004 ft | 258 kts | 195° |
| 2026-05-05 12:45 | 38.85333 | -92.21413 | 2466 ft | 216 kts | 152° |
| 2026-05-05 12:45 | 38.83894 | -92.20999 | 1693 ft | 211 kts | 174° |
| 2026-05-05 12:45 | 38.82524 | -92.21349 | 1052 ft | 196 kts | 200° |
| 2026-05-05 12:45 | 38.81351 | -92.21959 | 894 ft | 154 kts | 201° |
| 2026-05-05 12:46 | 38.80760 | -92.22255 | 889 ft | 65 kts | 201° |
| 2026-05-05 12:46 | 38.80547 | -92.22415 | 890 ft | 26 kts | 270° |
| 2026-05-05 12:46 | 38.80621 | -92.22474 | 890 ft | 11 kts | 15° |
| 2026-05-05 12:46 | 38.80694 | -92.22443 | 890 ft | 11 kts | 20° |
| 2026-05-05 12:47 | 38.80762 | -92.22404 | 890 ft | 12 kts | 23° |
| 2026-05-05 12:47 | 38.80851 | -92.22359 | 891 ft | 16 kts | 21° |
| 2026-05-05 12:47 | 38.80963 | -92.22303 | 891 ft | 19 kts | 21° |
| 2026-05-05 12:47 | 38.81092 | -92.22240 | 891 ft | 21 kts | 21° |
| 2026-05-05 12:48 | 38.81229 | -92.22169 | 892 ft | 22 kts | 21° |
| 2026-05-05 12:48 | 38.81303 | -92.22197 | 892 ft | 13 kts | 316° |
| 2026-05-05 12:48 | 38.81397 | -92.22204 | 892 ft | 16 kts | 20° |
| 2026-05-05 12:48 | 38.81502 | -92.22153 | 893 ft | 16 kts | 21° |
| 2026-05-05 12:49 | 38.81597 | -92.22106 | 893 ft | 9 kts | 21° |
| 2026-05-05 12:49 | 38.81651 | -92.22092 | 893 ft | 7 kts | 353° |
| 2026-05-05 12:49 | 38.81679 | -92.22104 | 893 ft | 0 kts | 335° |
| 2026-05-05 12:49 | 38.81681 | -92.22105 | 893 ft | 0 kts | 335° |